createdAt,value
2017-01-15T00:10:05.047Z,0.4
2017-01-15T00:20:19.600Z,0.4
2017-01-15T00:30:34.325Z,0.2
2017-01-15T00:40:48.446Z,0.1
2017-01-15T00:51:03.200Z,0.1
2017-01-15T01:01:18.069Z,0.1
2017-01-15T01:11:32.809Z,0.2
2017-01-15T01:21:46.853Z,0.3
2017-01-15T01:32:00.040Z,0.1
2017-01-15T01:42:13.842Z,0.5
2017-01-15T01:52:28.408Z,0.1
2017-01-15T02:02:42.972Z,0
2017-01-15T02:12:56.797Z,-0.4
2017-01-15T02:23:11.194Z,-0.1
2017-01-15T02:33:25.588Z,-0.2
2017-01-15T02:43:39.650Z,-0.2
2017-01-15T02:53:54.239Z,-0.3
2017-01-15T03:04:07.861Z,0.1
2017-01-15T03:14:21.321Z,-0.1
2017-01-15T03:24:35.565Z,-0.3
2017-01-15T03:34:49.628Z,0
2017-01-15T03:45:02.736Z,0
2017-01-15T03:55:17.238Z,-0.3
2017-01-15T04:05:30.729Z,-0.4
2017-01-15T04:15:43.987Z,-0.3
2017-01-15T04:25:58.092Z,-0.4
2017-01-15T04:36:12.214Z,-0.5
2017-01-15T04:46:26.619Z,-0.7
2017-01-15T04:56:40.984Z,-0.5
2017-01-15T05:06:55.610Z,-0.6
2017-01-15T05:17:09.931Z,-0.9
2017-01-15T05:27:23.354Z,-0.4
2017-01-15T05:37:38.064Z,-0.5
2017-01-15T05:47:52.177Z,-0.6
2017-01-15T05:58:06.759Z,-0.7
2017-01-15T06:08:21.625Z,-0.7
2017-01-15T06:18:35.909Z,-0.9
2017-01-15T06:28:49.271Z,-1
2017-01-15T06:39:02.996Z,-0.7
2017-01-15T06:49:17.473Z,-0.4
2017-01-15T06:59:30.520Z,-0.5
2017-01-15T07:09:44.395Z,-0.1
2017-01-15T07:19:57.589Z,0
2017-01-15T07:30:11.479Z,0
2017-01-15T07:40:25.558Z,-0.1
2017-01-15T07:50:39.089Z,-0.2
2017-01-15T08:00:52.711Z,0
2017-01-15T08:11:06.569Z,0.1
2017-01-15T08:21:21.550Z,0.3
2017-01-15T08:31:35.910Z,0.5
2017-01-15T08:41:50.803Z,0.4
2017-01-15T08:52:04.779Z,0.5
2017-01-15T09:02:19.066Z,0.5
2017-01-15T09:12:33.573Z,0.5
2017-01-15T09:22:47.654Z,0.4
2017-01-15T09:33:00.753Z,0.7
2017-01-15T09:43:14.952Z,0.3
2017-01-15T09:53:28.025Z,1.6
2017-01-15T10:03:41.655Z,2
2017-01-15T10:13:56.219Z,2.2
2017-01-15T10:24:10.997Z,2.4
2017-01-15T10:34:25.779Z,3.7
2017-01-15T10:44:40.125Z,3.8
2017-01-15T10:54:53.683Z,3.7
2017-01-15T11:05:07.967Z,4.1
2017-01-15T11:15:21.468Z,4.5
2017-01-15T11:25:35.326Z,3.2
2017-01-15T11:35:50.581Z,4.1
2017-01-15T11:46:04.020Z,3.5
2017-01-15T11:56:18.731Z,3.9
2017-01-15T12:06:33.606Z,3.8
2017-01-15T12:16:47.761Z,3.6
2017-01-15T12:27:01.494Z,3.6
2017-01-15T12:37:15.660Z,4.3
2017-01-15T12:47:29.680Z,3.7
2017-01-15T12:57:42.788Z,2.7
2017-01-15T13:07:57.080Z,4
2017-01-15T13:18:11.130Z,3.6
2017-01-15T13:28:25.326Z,2.3
2017-01-15T13:38:40.165Z,2
2017-01-15T13:48:54.153Z,2.2
2017-01-15T13:59:07.335Z,2
2017-01-15T14:09:20.740Z,2
2017-01-15T14:19:35.178Z,2
2017-01-15T14:29:50.101Z,2.1
2017-01-15T14:40:03.313Z,1.6
2017-01-15T14:50:17.119Z,1.2
2017-01-15T15:00:31.649Z,0.8
2017-01-15T15:10:44.779Z,0.8
2017-01-15T15:20:58.674Z,0.5
2017-01-15T15:31:13.089Z,0.3
2017-01-15T15:41:27.302Z,-0.1
2017-01-15T15:51:40.922Z,-0.2
2017-01-15T16:01:55.908Z,-0.3
2017-01-15T16:12:10.277Z,-0.7
2017-01-15T16:22:24.193Z,-0.9
2017-01-15T16:32:38.419Z,-0.8
2017-01-15T16:42:52.338Z,-1
2017-01-15T16:53:07.285Z,-1.2
2017-01-15T17:03:20.349Z,-1.3
2017-01-15T17:13:33.567Z,-1.3
2017-01-15T17:23:46.631Z,-1.1
2017-01-15T17:33:59.647Z,-1.1
2017-01-15T17:44:14.494Z,-1.5
2017-01-15T17:54:29.359Z,-1.5
2017-01-15T18:04:42.784Z,-1.6
2017-01-15T18:14:56.500Z,-1.8
2017-01-15T18:25:09.747Z,-2.3
2017-01-15T18:35:22.863Z,-2.1
2017-01-15T18:45:37.420Z,-1.8
2017-01-15T18:55:51.326Z,-1.8
2017-01-15T19:06:06.187Z,-1.6
2017-01-15T19:16:20.872Z,-1.6
2017-01-15T19:26:35.214Z,-1.5
2017-01-15T19:36:50.083Z,-1.5
2017-01-15T19:47:03.967Z,-1.8
2017-01-15T19:57:18.020Z,-1.9
2017-01-15T20:07:32.765Z,-2
2017-01-15T20:17:46.622Z,-1.8
2017-01-15T20:28:01.055Z,-1.6
2017-01-15T20:38:14.582Z,-1.9
2017-01-15T20:48:29.444Z,-1.9
2017-01-15T20:58:43.176Z,-1.4
2017-01-15T21:08:56.709Z,-1.2
2017-01-15T21:19:11.472Z,-0.9
2017-01-15T21:29:24.439Z,-0.8
2017-01-15T21:39:37.951Z,-0.7
2017-01-15T21:49:51.960Z,-0.5
2017-01-15T22:00:05.298Z,-0.5
2017-01-15T22:10:18.887Z,-0.5
2017-01-15T22:20:32.816Z,-0.6
2017-01-15T22:30:47.424Z,-0.5
2017-01-15T22:41:02.244Z,-0.5
2017-01-15T22:51:16.149Z,-0.5
2017-01-15T23:01:31.157Z,-0.5
2017-01-15T23:11:44.098Z,-0.6
2017-01-15T23:21:57.639Z,-0.5
2017-01-15T23:32:11.172Z,-0.5
2017-01-15T23:42:26.078Z,-0.6
2017-01-15T23:52:41.091Z,-0.6
